createdAt,value
2018-10-09T00:03:41.940Z,7.83
2018-10-09T00:13:45.318Z,8.37
2018-10-09T00:23:49.235Z,8.48
2018-10-09T00:33:53.418Z,9.03
2018-10-09T00:44:03.412Z,9.00
2018-10-09T00:54:06.847Z,9.43
2018-10-09T01:04:10.213Z,9.80
2018-10-09T01:14:13.546Z,9.73
2018-10-09T01:24:16.882Z,10.53
2018-10-09T01:34:20.256Z,9.37
2018-10-09T01:44:23.605Z,10.50
2018-10-09T01:54:27.168Z,9.97
2018-10-09T02:04:30.501Z,12.13
2018-10-09T02:14:33.963Z,11.10
2018-10-09T02:24:37.390Z,9.63
2018-10-09T02:34:40.725Z,10.03
2018-10-09T02:44:44.051Z,10.80
2018-10-09T02:54:47.413Z,11.40
2018-10-09T03:04:50.894Z,11.03
2018-10-09T03:14:54.547Z,12.37
2018-10-09T03:24:57.913Z,12.33
2018-10-09T03:35:01.244Z,12.23
2018-10-09T03:45:05.334Z,11.60
2018-10-09T03:55:09.365Z,12.57
2018-10-09T04:05:13.483Z,12.58
2018-10-09T04:15:16.955Z,13.23
2018-10-09T04:25:20.293Z,13.43
2018-10-09T04:35:23.682Z,13.57
2018-10-09T04:45:29.721Z,13.10
2018-10-09T04:55:33.039Z,13.03
2018-10-09T05:05:36.438Z,12.50
2018-10-09T05:15:40.512Z,13.03
2018-10-09T05:25:43.873Z,11.40
2018-10-09T05:35:47.312Z,14.03
2018-10-09T05:45:50.635Z,13.67
2018-10-09T05:55:54.050Z,12.90
2018-10-09T06:05:57.454Z,13.05
2018-10-09T06:16:00.837Z,12.93
2018-10-09T06:26:05.996Z,15.60
2018-10-09T06:36:09.502Z,16.77
2018-10-09T06:46:17.297Z,16.50
2018-10-09T06:56:20.946Z,17.03
2018-10-09T07:06:24.976Z,16.77
2018-10-09T07:16:28.583Z,18.13
2018-10-09T07:26:32.526Z,17.07
2018-10-09T07:36:36.634Z,17.83
2018-10-09T07:46:40.836Z,17.53
2018-10-09T07:56:44.369Z,18.63
2018-10-09T08:06:47.899Z,17.67
2018-10-09T08:16:51.575Z,19.57
2018-10-09T08:26:55.046Z,18.27
2018-10-09T08:36:58.550Z,19.03
2018-10-09T08:47:02.186Z,20.77
2018-10-09T08:57:06.205Z,20.93
2018-10-09T09:07:09.666Z,20.23
2018-10-09T09:17:13.179Z,21.07
2018-10-09T09:27:17.238Z,18.00
2018-10-09T09:37:21.035Z,15.65
2018-10-09T09:47:24.602Z,13.40
2018-10-09T09:57:28.772Z,12.63
2018-10-09T10:07:33.203Z,14.27
2018-10-09T10:17:41.016Z,13.70
2018-10-09T10:27:45.891Z,12.57
2018-10-09T10:37:49.364Z,12.00
2018-10-09T10:47:52.857Z,10.23
2018-10-09T10:57:56.570Z,12.90
2018-10-09T11:08:00.201Z,13.33
2018-10-09T11:18:03.970Z,14.83
2018-10-09T11:28:13.384Z,15.70
2018-10-09T11:38:17.473Z,15.93
2018-10-09T11:48:21.222Z,15.30
2018-10-09T11:58:24.849Z,19.02
2018-10-09T12:08:28.717Z,18.53
2018-10-09T12:18:32.519Z,17.20
2018-10-09T12:28:36.724Z,17.23
2018-10-09T12:38:44.871Z,18.53
2018-10-09T12:48:48.417Z,16.37
2018-10-09T12:58:52.024Z,14.80
2018-10-09T13:08:55.476Z,14.80
2018-10-09T13:18:59.216Z,15.13
2018-10-09T13:29:03.743Z,13.97
2018-10-09T13:39:07.822Z,14.33
2018-10-09T13:49:19.789Z,13.60
2018-10-09T13:59:23.957Z,12.47
2018-10-09T14:09:27.650Z,14.10
2018-10-09T14:19:31.335Z,11.80
2018-10-09T14:29:35.829Z,8.67
2018-10-09T14:39:39.502Z,8.37
2018-10-09T14:49:44.002Z,8.80
2018-10-09T14:59:47.434Z,10.77
2018-10-09T15:09:50.903Z,10.53
2018-10-09T15:20:00.231Z,10.90
2018-10-09T15:30:03.685Z,11.30
2018-10-09T15:40:07.243Z,11.97
2018-10-09T15:50:10.674Z,13.03
2018-10-09T16:00:14.031Z,13.67
2018-10-09T16:10:17.389Z,12.97
2018-10-09T16:20:20.749Z,12.03
2018-10-09T16:30:28.492Z,11.63
2018-10-09T16:40:32.011Z,11.07
2018-10-09T16:50:35.382Z,11.00
2018-10-09T17:00:38.726Z,10.57
2018-10-09T17:10:42.202Z,11.37
2018-10-09T17:20:45.757Z,12.80
2018-10-09T17:30:49.101Z,13.03
2018-10-09T17:40:52.695Z,12.23
2018-10-09T17:50:56.113Z,11.40
2018-10-09T18:00:59.772Z,12.13
2018-10-09T18:11:03.654Z,14.38
2018-10-09T18:21:07.022Z,13.50
2018-10-09T18:37:37.182Z,15.88
2018-10-09T18:47:42.858Z,16.03
2018-10-09T18:57:46.537Z,14.20
2018-10-09T19:07:49.927Z,13.93
2018-10-09T19:17:55.547Z,14.90
2018-10-09T19:27:58.920Z,15.83
2018-10-09T19:38:02.311Z,14.53
2018-10-09T19:48:05.900Z,14.37
2018-10-09T19:58:10.814Z,16.12
2018-10-09T20:08:15.165Z,15.40
2018-10-09T20:18:18.654Z,16.20
2018-10-09T20:28:22.043Z,16.70
2018-10-09T20:38:26.414Z,17.63
2018-10-09T20:48:29.749Z,19.03
2018-10-09T20:58:33.109Z,17.43
2018-10-09T21:08:36.485Z,17.57
2018-10-09T21:18:39.845Z,19.13
2018-10-09T21:28:43.214Z,19.43
2018-10-09T21:38:47.318Z,18.23
2018-10-09T21:48:50.680Z,18.73
2018-10-09T21:58:54.837Z,17.33
2018-10-09T22:08:58.178Z,15.90
2018-10-09T22:19:02.082Z,18.37
2018-10-09T22:29:05.466Z,17.55
2018-10-09T22:39:09.806Z,17.73
2018-10-09T22:49:13.303Z,17.23
2018-10-09T22:59:16.759Z,18.77
2018-10-09T23:09:20.115Z,17.10
2018-10-09T23:19:23.641Z,15.90
2018-10-09T23:29:27.060Z,16.53
2018-10-09T23:39:30.543Z,16.87
2018-10-09T23:49:33.885Z,16.57
2018-10-09T23:59:37.236Z,15.97
